RUH weather

King Khaled International Airport
Riyadh, Riyadh Region, Saudi Arabia

Public forecast

Using degrees Celsius for public forecast. Weather courtesy of forecast.io.

Current aviation weather report (METAR) for King Khaled International Airport

Retrieved 2019/10/21 06:00 UTC (3 minutes ago):

OERK 210600Z 14003KT 9000 NSC 31/09 Q1018 NOSIG

Aviation forecast (TAF) for King Khaled International Airport

Retrieved 2019/10/21 06:06 UTC (0 seconds ago):

TAF OERK 210500Z 2106/2212 17013KT 8000 NSC BECMG 2116/2118 22008KT